createdAt,value
2022-11-15T00:00:04.888Z,2.43
2022-11-15T00:02:35.004Z,2.41
2022-11-15T00:05:05.374Z,2.38
2022-11-15T00:07:54.553Z,2.35
2022-11-15T00:10:23.631Z,2.34
2022-11-15T00:12:52.135Z,2.31
2022-11-15T00:15:20.582Z,2.31
2022-11-15T00:17:52.129Z,2.30
2022-11-15T00:20:22.215Z,2.27
2022-11-15T00:22:52.337Z,2.27
2022-11-15T00:25:22.490Z,2.26
2022-11-15T00:27:58.442Z,2.23
2022-11-15T00:30:29.808Z,2.20
2022-11-15T00:33:08.066Z,2.19
2022-11-15T00:35:38.240Z,2.19
2022-11-15T00:38:08.442Z,2.19
2022-11-15T00:40:38.552Z,2.13
2022-11-15T00:43:08.732Z,2.09
2022-11-15T00:45:37.272Z,2.02
2022-11-15T00:48:06.142Z,2.01
2022-11-15T00:50:33.894Z,2.01
2022-11-15T00:53:02.286Z,2.00
2022-11-15T00:55:30.808Z,1.96
2022-11-15T00:57:59.184Z,1.94
2022-11-15T01:00:27.942Z,1.90
2022-11-15T01:02:57.598Z,1.86
2022-11-15T01:05:27.607Z,1.84
2022-11-15T01:07:57.526Z,1.82
2022-11-15T01:10:27.744Z,1.79
2022-11-15T01:12:58.742Z,1.76
2022-11-15T01:15:28.867Z,1.75
2022-11-15T01:17:58.981Z,1.72
2022-11-15T01:20:31.895Z,1.74
2022-11-15T01:23:01.963Z,1.71
2022-11-15T01:25:32.019Z,1.70
2022-11-15T01:28:02.146Z,1.69
2022-11-15T01:30:32.383Z,1.67
2022-11-15T01:33:02.595Z,1.66
2022-11-15T01:35:33.344Z,1.66
2022-11-15T01:38:03.550Z,1.65
2022-11-15T01:40:33.962Z,1.63
2022-11-15T01:43:37.666Z,1.61
2022-11-15T01:46:25.066Z,1.60
2022-11-15T01:49:03.606Z,1.62
2022-11-15T01:51:34.956Z,1.62
2022-11-15T01:54:18.192Z,1.61
2022-11-15T01:57:08.714Z,1.58
2022-11-15T01:59:45.661Z,1.56
2022-11-15T02:02:14.957Z,1.54
2022-11-15T02:04:47.955Z,1.52
2022-11-15T02:07:22.776Z,1.51
2022-11-15T02:09:53.825Z,1.49
2022-11-15T02:12:24.874Z,1.45
2022-11-15T02:14:57.558Z,1.43
2022-11-15T02:18:24.773Z,1.39
2022-11-15T02:21:44.792Z,1.37
2022-11-15T02:24:58.121Z,1.34
2022-11-15T02:28:01.015Z,1.33
2022-11-15T02:31:03.932Z,1.32
2022-11-15T02:34:03.622Z,1.35
2022-11-15T02:37:13.132Z,1.30
2022-11-15T02:39:57.119Z,1.29
2022-11-15T02:43:09.430Z,1.26
2022-11-15T02:45:58.081Z,1.25
2022-11-15T02:48:28.457Z,1.25
2022-11-15T02:50:59.317Z,1.25
2022-11-15T02:53:29.765Z,1.26
2022-11-15T02:55:59.654Z,1.29
2022-11-15T02:59:15.209Z,1.27
2022-11-15T03:02:01.231Z,1.28
2022-11-15T03:04:50.924Z,1.26
2022-11-15T03:07:52.353Z,1.24
2022-11-15T03:11:01.690Z,1.25
2022-11-15T03:14:16.033Z,1.24
2022-11-15T03:17:19.757Z,1.21
2022-11-15T03:20:00.480Z,1.20
2022-11-15T03:22:45.256Z,1.15
2022-11-15T03:25:26.518Z,1.11
2022-11-15T03:28:07.940Z,1.09
2022-11-15T03:30:42.487Z,1.11
2022-11-15T03:33:13.465Z,1.14
2022-11-15T03:35:49.651Z,1.16
2022-11-15T03:38:36.624Z,1.17
2022-11-15T03:41:41.740Z,1.18
2022-11-15T03:44:55.570Z,1.16
2022-11-15T03:47:45.225Z,1.12
2022-11-15T03:50:24.305Z,1.11
2022-11-15T03:52:58.091Z,1.12
2022-11-15T03:55:26.016Z,1.16
2022-11-15T03:58:01.333Z,1.17
2022-11-15T04:00:30.966Z,1.16
2022-11-15T04:03:00.484Z,1.15
2022-11-15T04:05:30.519Z,1.14
2022-11-15T04:08:00.196Z,1.10
2022-11-15T04:10:29.988Z,1.08
2022-11-15T04:12:59.886Z,1.10
2022-11-15T04:15:32.983Z,1.09
2022-11-15T04:18:03.120Z,1.07
2022-11-15T04:21:09.493Z,1.07
2022-11-15T04:23:58.418Z,1.05
2022-11-15T04:26:28.782Z,1.04
2022-11-15T04:29:15.554Z,1.04
2022-11-15T04:31:46.006Z,1.02
2022-11-15T04:34:16.101Z,1.03
2022-11-15T04:37:05.021Z,1.02
2022-11-15T04:39:35.113Z,1.03
2022-11-15T04:42:09.191Z,1.04
2022-11-15T04:44:39.847Z,1.04
2022-11-15T04:47:10.932Z,1.05
2022-11-15T04:49:41.068Z,1.07
2022-11-15T04:52:11.316Z,1.08
2022-11-15T04:54:43.271Z,1.07
2022-11-15T04:57:13.426Z,1.06
2022-11-15T04:59:43.574Z,1.06
2022-11-15T05:02:12.111Z,1.06
2022-11-15T05:04:41.727Z,1.14
2022-11-15T05:07:09.372Z,1.20
2022-11-15T05:09:37.827Z,1.21
2022-11-15T05:12:10.492Z,1.20
2022-11-15T05:14:40.971Z,1.16
2022-11-15T05:17:11.115Z,1.14
2022-11-15T05:19:41.437Z,1.11
2022-11-15T05:22:11.631Z,1.10
2022-11-15T05:24:41.799Z,1.09
2022-11-15T05:27:11.899Z,1.08
2022-11-15T05:29:42.047Z,1.07
2022-11-15T05:32:14.346Z,1.06
2022-11-15T05:34:45.488Z,1.04
2022-11-15T05:37:17.783Z,1.00
2022-11-15T05:39:47.944Z,1.00
2022-11-15T05:42:19.966Z,0.98
2022-11-15T05:44:51.606Z,0.94
2022-11-15T05:47:30.477Z,0.97
2022-11-15T05:50:00.764Z,0.97
2022-11-15T05:52:38.333Z,0.97
2022-11-15T05:55:11.672Z,0.97
2022-11-15T05:57:42.780Z,0.95
2022-11-15T06:00:14.564Z,0.93
2022-11-15T06:02:45.075Z,0.91
2022-11-15T06:05:15.911Z,0.92
2022-11-15T06:07:46.181Z,0.89
2022-11-15T06:10:17.426Z,0.89
2022-11-15T06:12:45.131Z,0.92
2022-11-15T06:15:13.292Z,0.93
2022-11-15T06:17:41.649Z,0.96
2022-11-15T06:20:11.440Z,0.99
2022-11-15T06:22:38.607Z,1.01
2022-11-15T06:25:07.699Z,1.06
2022-11-15T06:27:35.557Z,1.09
2022-11-15T06:30:04.450Z,1.11
2022-11-15T06:32:32.583Z,1.13
2022-11-15T06:35:00.870Z,1.15
2022-11-15T06:37:29.093Z,1.18
2022-11-15T06:39:57.678Z,1.19
2022-11-15T06:42:26.098Z,1.21
2022-11-15T06:44:54.463Z,1.24
2022-11-15T06:47:22.964Z,1.30
2022-11-15T06:49:51.494Z,1.34
2022-11-15T06:52:20.694Z,1.38
2022-11-15T06:54:48.383Z,1.39
2022-11-15T06:57:16.560Z,1.39
2022-11-15T06:59:45.046Z,1.40
2022-11-15T07:02:15.156Z,1.44
2022-11-15T07:04:44.809Z,1.49
2022-11-15T07:07:13.295Z,1.51
2022-11-15T07:09:41.753Z,1.54
2022-11-15T07:12:14.524Z,1.58
2022-11-15T07:14:44.603Z,1.67
2022-11-15T07:17:14.771Z,1.68
2022-11-15T07:19:44.914Z,1.73
2022-11-15T07:23:39.475Z,1.81
2022-11-15T07:26:10.266Z,1.91
2022-11-15T07:28:40.478Z,2.02
2022-11-15T07:31:12.184Z,2.18
2022-11-15T07:33:42.327Z,2.29
2022-11-15T07:36:12.376Z,2.37
2022-11-15T07:38:43.219Z,2.44
2022-11-15T07:41:13.419Z,2.54
2022-11-15T07:43:43.609Z,2.63
2022-11-15T07:46:13.763Z,2.72
2022-11-15T07:48:45.272Z,2.79
2022-11-15T07:51:18.169Z,2.85
2022-11-15T07:53:48.196Z,2.93
2022-11-15T07:56:18.443Z,3.01
2022-11-15T07:58:48.463Z,3.12
2022-11-15T08:01:18.507Z,3.17
2022-11-15T08:03:48.664Z,3.23
2022-11-15T08:06:18.562Z,3.39
2022-11-15T08:08:49.022Z,3.45
2022-11-15T08:11:19.187Z,3.53
2022-11-15T08:13:49.231Z,3.67
2022-11-15T08:16:19.022Z,3.75
2022-11-15T08:18:47.941Z,3.78
2022-11-15T08:21:22.156Z,3.87
2022-11-15T08:23:51.291Z,3.97
2022-11-15T08:26:21.134Z,4.04
2022-11-15T08:28:51.005Z,4.13
2022-11-15T08:31:20.911Z,4.24
2022-11-15T08:33:50.690Z,4.42
2022-11-15T08:36:20.875Z,4.54
2022-11-15T08:38:50.558Z,4.64
2022-11-15T08:41:36.858Z,4.78
2022-11-15T08:44:05.501Z,4.99
2022-11-15T08:46:35.581Z,5.14
2022-11-15T08:49:05.679Z,5.31
2022-11-15T08:51:35.804Z,5.44
2022-11-15T08:54:06.055Z,5.58
2022-11-15T08:56:36.121Z,5.75
2022-11-15T08:59:06.339Z,5.82
2022-11-15T09:01:36.497Z,5.88
2022-11-15T09:04:06.743Z,6.01
2022-11-15T09:06:39.733Z,6.03
2022-11-15T09:09:13.267Z,6.06
2022-11-15T09:11:43.393Z,6.10
2022-11-15T09:14:15.942Z,6.14
2022-11-15T09:16:46.068Z,6.21
2022-11-15T09:19:16.278Z,6.42
2022-11-15T09:21:46.378Z,6.46
2022-11-15T09:24:16.571Z,6.51
2022-11-15T09:26:47.130Z,6.63
2022-11-15T09:29:17.178Z,6.75
2022-11-15T09:31:47.309Z,6.87
2022-11-15T09:34:17.511Z,6.90
2022-11-15T09:36:45.886Z,7.09
2022-11-15T09:39:14.366Z,7.26
2022-11-15T09:42:17.962Z,7.54
2022-11-15T09:45:29.139Z,7.90
2022-11-15T09:48:45.532Z,8.19
2022-11-15T09:51:49.252Z,8.52
2022-11-15T09:54:58.200Z,8.73
2022-11-15T09:58:01.830Z,9.14
2022-11-15T10:00:49.960Z,9.56
2022-11-15T10:03:38.534Z,9.82
2022-11-15T10:06:25.746Z,10.14
2022-11-15T10:09:24.129Z,10.43
2022-11-15T10:11:55.219Z,10.39
2022-11-15T10:14:32.135Z,10.59
2022-11-15T10:17:59.450Z,10.70
2022-11-15T10:20:59.494Z,10.73
2022-11-15T10:23:33.061Z,11.03
2022-11-15T10:26:14.650Z,11.05
2022-11-15T10:28:44.741Z,11.18
2022-11-15T10:31:28.983Z,11.25
2022-11-15T10:34:22.598Z,11.36
2022-11-15T10:37:02.695Z,11.55
2022-11-15T10:39:31.632Z,11.53
2022-11-15T10:42:17.896Z,11.49
2022-11-15T10:44:47.923Z,11.50
2022-11-15T10:47:45.673Z,11.38
2022-11-15T10:50:33.451Z,11.03
2022-11-15T10:53:03.971Z,10.77
2022-11-15T10:55:36.512Z,10.62
2022-11-15T10:58:34.484Z,10.50
2022-11-15T11:01:19.509Z,10.55
2022-11-15T11:04:10.814Z,10.51
2022-11-15T11:06:56.378Z,10.48
2022-11-15T11:09:38.802Z,10.36
2022-11-15T11:12:15.732Z,10.31
2022-11-15T11:14:45.766Z,10.36
2022-11-15T11:18:10.457Z,10.37
2022-11-15T11:20:55.126Z,10.38
2022-11-15T11:23:44.544Z,10.42
2022-11-15T11:27:08.577Z,10.55
2022-11-15T11:30:23.198Z,10.61
2022-11-15T11:33:23.073Z,10.44
2022-11-15T11:36:28.975Z,10.48
2022-11-15T11:39:49.273Z,10.48
2022-11-15T11:43:00.424Z,10.53
2022-11-15T11:45:47.500Z,10.47
2022-11-15T11:48:43.667Z,10.45
2022-11-15T11:51:40.957Z,10.52
2022-11-15T11:54:17.973Z,10.54
2022-11-15T11:56:52.762Z,10.56
2022-11-15T11:59:51.097Z,10.58
2022-11-15T12:02:46.160Z,10.65
2022-11-15T12:06:18.774Z,10.65
2022-11-15T12:09:31.400Z,10.70
2022-11-15T12:12:46.849Z,10.90
2022-11-15T12:15:30.992Z,11.16
2022-11-15T12:18:02.849Z,11.04
2022-11-15T12:20:55.381Z,10.99
2022-11-15T12:23:55.922Z,11.07
2022-11-15T12:26:43.749Z,11.02
2022-11-15T12:29:34.591Z,11.00
2022-11-15T12:32:19.004Z,11.09
2022-11-15T12:34:53.048Z,11.23
2022-11-15T12:37:47.027Z,11.22
2022-11-15T12:40:37.766Z,11.25
2022-11-15T12:43:16.763Z,11.27
2022-11-15T12:45:47.519Z,11.35
2022-11-15T12:48:18.272Z,11.38
2022-11-15T12:50:55.669Z,11.40
2022-11-15T12:53:28.693Z,11.43
2022-11-15T12:56:13.338Z,11.39
2022-11-15T12:58:57.250Z,11.45
2022-11-15T13:01:36.477Z,11.56
2022-11-15T13:04:31.170Z,11.48
2022-11-15T13:07:08.621Z,11.49
2022-11-15T13:09:38.492Z,11.55
2022-11-15T13:12:35.349Z,11.51
2022-11-15T13:15:14.373Z,11.49
2022-11-15T13:18:26.491Z,11.48
2022-11-15T13:21:01.978Z,11.43
2022-11-15T13:23:32.699Z,11.52
2022-11-15T13:26:19.034Z,11.73
2022-11-15T13:28:55.798Z,11.59
2022-11-15T13:31:41.536Z,11.44
2022-11-15T13:34:53.309Z,11.26
2022-11-15T13:37:23.375Z,11.17
2022-11-15T13:39:53.465Z,11.18
2022-11-15T13:42:24.799Z,11.26
2022-11-15T13:45:13.842Z,11.14
2022-11-15T13:47:43.954Z,11.17
2022-11-15T13:50:18.059Z,11.18
2022-11-15T13:52:50.194Z,11.28
2022-11-15T13:55:25.395Z,11.30
2022-11-15T13:58:07.277Z,11.27
2022-11-15T14:00:45.510Z,11.15
2022-11-15T14:03:28.890Z,11.01
2022-11-15T14:06:18.562Z,11.02
2022-11-15T14:09:35.277Z,10.94
2022-11-15T14:12:36.392Z,10.82
2022-11-15T14:15:37.223Z,10.68
2022-11-15T14:18:07.914Z,10.64
2022-11-15T14:20:41.242Z,10.64
2022-11-15T14:23:29.391Z,10.49
2022-11-15T14:26:01.222Z,10.36
2022-11-15T14:28:39.124Z,10.33
2022-11-15T14:31:16.257Z,10.19
2022-11-15T14:33:46.562Z,10.02
2022-11-15T14:36:22.984Z,9.95
2022-11-15T14:38:53.180Z,9.90
2022-11-15T14:41:27.402Z,9.85
2022-11-15T14:43:55.691Z,9.77
2022-11-15T14:46:25.697Z,9.71
2022-11-15T14:48:55.726Z,9.67
2022-11-15T14:51:25.491Z,9.60
2022-11-15T14:53:56.450Z,9.65
2022-11-15T14:56:26.619Z,9.74
2022-11-15T14:58:56.422Z,9.70
2022-11-15T15:01:28.314Z,9.52
2022-11-15T15:03:59.472Z,9.32
2022-11-15T15:06:30.108Z,9.20
2022-11-15T15:09:00.342Z,9.05
2022-11-15T15:11:32.839Z,8.90
2022-11-15T15:14:02.821Z,8.75
2022-11-15T15:16:32.966Z,8.64
2022-11-15T15:19:03.129Z,8.48
2022-11-15T15:21:36.839Z,8.34
2022-11-15T15:24:06.989Z,8.19
2022-11-15T15:26:37.556Z,8.05
2022-11-15T15:29:06.700Z,7.93
2022-11-15T15:31:35.039Z,7.79
2022-11-15T15:34:03.873Z,7.68
2022-11-15T15:36:33.947Z,7.57
2022-11-15T15:39:04.334Z,7.46
2022-11-15T15:41:34.336Z,7.39
2022-11-15T15:44:04.161Z,7.31
2022-11-15T15:46:36.331Z,7.24
2022-11-15T15:49:05.628Z,7.16
2022-11-15T15:51:35.390Z,7.10
2022-11-15T15:54:05.461Z,7.06
2022-11-15T15:56:35.240Z,7.01
2022-11-15T15:59:05.157Z,6.97
2022-11-15T16:01:35.025Z,6.90
2022-11-15T16:04:05.042Z,6.85
2022-11-15T16:06:45.239Z,6.78
2022-11-15T16:09:19.736Z,6.72
2022-11-15T16:11:48.413Z,6.67
2022-11-15T16:14:18.452Z,6.62
2022-11-15T16:16:48.241Z,6.58
2022-11-15T16:19:17.992Z,6.50
2022-11-15T16:21:53.027Z,6.45
2022-11-15T16:24:21.943Z,6.39
2022-11-15T16:26:53.267Z,6.37
2022-11-15T16:29:20.861Z,6.33
2022-11-15T16:31:50.547Z,6.26
2022-11-15T16:34:20.235Z,6.22
2022-11-15T16:36:51.817Z,6.15
2022-11-15T16:39:23.599Z,6.13
2022-11-15T16:41:53.719Z,6.09
2022-11-15T16:44:24.867Z,6.07
2022-11-15T16:46:55.172Z,6.10
2022-11-15T16:49:25.007Z,6.19
2022-11-15T16:51:54.868Z,6.24
2022-11-15T16:54:24.472Z,6.23
2022-11-15T16:56:53.787Z,6.23
2022-11-15T16:59:21.319Z,6.21
2022-11-15T17:01:52.722Z,6.32
2022-11-15T17:04:22.928Z,6.40
2022-11-15T17:06:53.307Z,6.41
2022-11-15T17:09:24.954Z,6.47
2022-11-15T17:11:54.291Z,6.50
2022-11-15T17:14:24.012Z,6.48
2022-11-15T17:16:56.019Z,6.53
2022-11-15T17:19:24.157Z,6.50
2022-11-15T17:21:54.282Z,6.51
2022-11-15T17:24:24.498Z,6.47
2022-11-15T17:26:53.898Z,6.54
2022-11-15T17:29:23.703Z,6.65
2022-11-15T17:31:53.425Z,6.67
2022-11-15T17:34:23.516Z,6.64
2022-11-15T17:36:53.199Z,6.55
2022-11-15T17:39:25.004Z,6.45
2022-11-15T17:41:54.158Z,6.37
2022-11-15T17:44:24.137Z,6.29
2022-11-15T17:46:53.946Z,6.26
2022-11-15T17:49:23.853Z,6.27
2022-11-15T17:51:53.962Z,6.41
2022-11-15T17:54:24.194Z,6.37
2022-11-15T17:57:53.967Z,6.54
2022-11-15T18:00:23.871Z,6.51
2022-11-15T18:02:53.420Z,6.54
2022-11-15T18:05:23.122Z,6.48
2022-11-15T18:07:51.199Z,6.63
2022-11-15T18:10:20.608Z,6.52
2022-11-15T18:12:50.584Z,6.41
2022-11-15T18:15:21.482Z,6.33
2022-11-15T18:17:50.960Z,6.28
2022-11-15T18:20:23.338Z,6.13
2022-11-15T18:22:54.603Z,6.03
2022-11-15T18:25:23.025Z,5.94
2022-11-15T18:27:55.376Z,5.83
2022-11-15T18:30:24.915Z,5.74
2022-11-15T18:32:55.460Z,5.70
2022-11-15T18:35:25.255Z,5.64
2022-11-15T18:37:56.184Z,5.57
2022-11-15T18:40:25.718Z,5.49
2022-11-15T18:42:55.403Z,5.42
2022-11-15T18:45:25.546Z,5.36
2022-11-15T18:47:55.450Z,5.33
2022-11-15T18:50:25.301Z,5.30
2022-11-15T18:52:55.463Z,5.27
2022-11-15T18:55:25.342Z,5.23
2022-11-15T18:57:55.096Z,5.19
2022-11-15T19:00:25.187Z,5.17
2022-11-15T19:02:55.322Z,5.14
2022-11-15T19:05:25.276Z,5.10
2022-11-15T19:07:55.146Z,5.07
2022-11-15T19:10:23.780Z,5.03
2022-11-15T19:12:52.381Z,5.00
2022-11-15T19:15:20.738Z,4.97
2022-11-15T19:17:49.199Z,4.93
2022-11-15T19:20:17.792Z,4.94
2022-11-15T19:22:46.206Z,4.93
2022-11-15T19:25:14.648Z,4.92
2022-11-15T19:27:43.040Z,4.90
2022-11-15T19:30:12.431Z,4.86
2022-11-15T19:32:40.062Z,4.88
2022-11-15T19:35:08.789Z,4.86
2022-11-15T19:37:36.805Z,4.81
2022-11-15T19:40:05.949Z,4.76
2022-11-15T19:42:33.638Z,4.70
2022-11-15T19:45:02.117Z,4.71
2022-11-15T19:47:30.603Z,4.69
2022-11-15T19:49:58.722Z,4.67
2022-11-15T19:52:27.517Z,4.64
2022-11-15T19:54:56.146Z,4.64
2022-11-15T19:57:24.531Z,4.64
2022-11-15T19:59:52.848Z,4.70
2022-11-15T20:02:21.388Z,4.76
2022-11-15T20:04:49.735Z,4.72
2022-11-15T20:07:18.372Z,4.73
2022-11-15T20:09:46.498Z,4.75
2022-11-15T20:12:17.390Z,4.77
2022-11-15T20:14:46.671Z,4.77
2022-11-15T20:17:14.725Z,4.97
2022-11-15T20:19:43.615Z,4.88
2022-11-15T20:22:11.552Z,4.92
2022-11-15T20:24:40.018Z,4.90
2022-11-15T20:27:08.647Z,4.93
2022-11-15T20:29:43.755Z,5.03
2022-11-15T20:32:15.003Z,5.01
2022-11-15T20:34:47.919Z,4.97
2022-11-15T20:37:20.689Z,5.14
2022-11-15T20:39:50.772Z,5.08
2022-11-15T20:42:21.086Z,5.08
2022-11-15T20:44:51.118Z,5.06
2022-11-15T20:47:21.172Z,5.00
2022-11-15T20:49:51.431Z,4.95
2022-11-15T20:52:21.588Z,4.95
2022-11-15T20:54:51.950Z,4.94
2022-11-15T20:57:22.149Z,4.98
2022-11-15T20:59:52.175Z,4.96
2022-11-15T21:02:22.324Z,4.97
2022-11-15T21:04:52.469Z,4.93
2022-11-15T21:07:22.552Z,4.92
2022-11-15T21:10:11.531Z,4.94
2022-11-15T21:12:41.700Z,4.89
2022-11-15T21:15:11.746Z,4.86
2022-11-15T21:17:41.811Z,4.86
2022-11-15T21:20:13.261Z,4.84
2022-11-15T21:22:43.899Z,4.90
2022-11-15T21:25:11.814Z,4.86
2022-11-15T21:27:40.229Z,4.78
2022-11-15T21:30:09.330Z,4.77
2022-11-15T21:32:39.215Z,4.78
2022-11-15T21:35:10.107Z,4.71
2022-11-15T21:37:40.724Z,4.71
2022-11-15T21:40:11.882Z,4.76
2022-11-15T21:42:41.951Z,4.66
2022-11-15T21:45:12.240Z,4.67
2022-11-15T21:47:44.750Z,4.65
2022-11-15T21:50:16.887Z,4.61
2022-11-15T21:52:47.204Z,4.56
2022-11-15T21:55:17.381Z,4.54
2022-11-15T21:57:47.457Z,4.58
2022-11-15T22:00:37.257Z,4.49
2022-11-15T22:03:07.332Z,4.43
2022-11-15T22:05:37.416Z,4.53
2022-11-15T22:08:07.486Z,4.55
2022-11-15T22:10:37.575Z,4.44
2022-11-15T22:13:07.656Z,4.47
2022-11-15T22:15:37.743Z,4.41
2022-11-15T22:18:08.198Z,4.40
2022-11-15T22:20:44.462Z,4.36
2022-11-15T22:23:15.271Z,4.39
2022-11-15T22:25:45.482Z,4.41
2022-11-15T22:28:16.103Z,4.43
2022-11-15T22:30:48.304Z,4.44
2022-11-15T22:33:18.996Z,4.41
2022-11-15T22:35:50.789Z,4.44
2022-11-15T22:38:22.436Z,4.29
2022-11-15T22:40:53.619Z,4.24
2022-11-15T22:43:27.051Z,4.20
2022-11-15T22:46:01.512Z,4.38
2022-11-15T22:48:39.759Z,4.31
2022-11-15T22:51:10.396Z,4.23
2022-11-15T22:53:40.593Z,4.25
2022-11-15T22:56:10.910Z,4.21
2022-11-15T22:58:41.144Z,4.31
2022-11-15T23:01:22.178Z,4.38
2022-11-15T23:03:55.638Z,4.38
2022-11-15T23:06:25.911Z,4.38
2022-11-15T23:08:56.104Z,4.33
2022-11-15T23:11:44.911Z,4.28
2022-11-15T23:14:14.999Z,4.32
2022-11-15T23:16:43.458Z,4.31
2022-11-15T23:19:13.686Z,4.26
2022-11-15T23:22:05.935Z,4.17
2022-11-15T23:24:36.142Z,4.16
2022-11-15T23:27:08.301Z,4.11
2022-11-15T23:29:58.469Z,4.16
2022-11-15T23:32:46.873Z,4.13
2022-11-15T23:35:17.565Z,4.14
2022-11-15T23:37:47.732Z,4.16
2022-11-15T23:40:18.313Z,4.29
2022-11-15T23:42:48.549Z,4.24
2022-11-15T23:45:18.864Z,4.17
2022-11-15T23:47:49.091Z,4.15
2022-11-15T23:50:19.484Z,4.21
2022-11-15T23:52:49.730Z,4.06
2022-11-15T23:55:19.943Z,4.17
2022-11-15T23:57:50.174Z,4.06
